sensor_id;sensor_type;location;lat;lon;timestamp;P1;durP1;ratioP1;P2;durP2;ratioP2
65463;SDS011;52063;45.110;9.870;2023-03-01T00:01:58;4.27;;;3.37;;
65463;SDS011;52063;45.110;9.870;2023-03-01T00:04:24;3.72;;;3.42;;
65463;SDS011;52063;45.110;9.870;2023-03-01T00:06:49;4.20;;;3.80;;
65463;SDS011;52063;45.110;9.870;2023-03-01T00:09:15;3.60;;;3.30;;
65463;SDS011;52063;45.110;9.870;2023-03-01T00:11:41;5.43;;;3.55;;
65463;SDS011;52063;45.110;9.870;2023-03-01T00:14:06;4.27;;;3.40;;
65463;SDS011;52063;45.110;9.870;2023-03-01T00:16:33;3.78;;;3.47;;
65463;SDS011;52063;45.110;9.870;2023-03-01T00:19:00;3.60;;;3.30;;
65463;SDS011;52063;45.110;9.870;2023-03-01T00:21:26;3.95;;;3.55;;
65463;SDS011;52063;45.110;9.870;2023-03-01T00:23:52;4.00;;;3.22;;
65463;SDS011;52063;45.110;9.870;2023-03-01T00:26:18;4.47;;;3.90;;
65463;SDS011;52063;45.110;9.870;2023-03-01T00:28:45;5.63;;;3.95;;
65463;SDS011;52063;45.110;9.870;2023-03-01T00:31:12;4.28;;;3.88;;
65463;SDS011;52063;45.110;9.870;2023-03-01T00:33:40;4.38;;;3.97;;
65463;SDS011;52063;45.110;9.870;2023-03-01T00:36:06;4.20;;;3.75;;
65463;SDS011;52063;45.110;9.870;2023-03-01T00:38:35;4.00;;;3.57;;
65463;SDS011;52063;45.110;9.870;2023-03-01T00:41:05;4.95;;;3.92;;
65463;SDS011;52063;45.110;9.870;2023-03-01T00:43:37;4.57;;;3.97;;
65463;SDS011;52063;45.110;9.870;2023-03-01T00:46:07;3.53;;;3.20;;
65463;SDS011;52063;45.110;9.870;2023-03-01T00:48:34;4.30;;;3.90;;
65463;SDS011;52063;45.110;9.870;2023-03-01T00:51:07;5.77;;;4.00;;
65463;SDS011;52063;45.110;9.870;2023-03-01T00:53:38;4.28;;;3.88;;
65463;SDS011;52063;45.110;9.870;2023-03-01T00:56:05;4.47;;;3.90;;
65463;SDS011;52063;45.110;9.870;2023-03-01T00:58:31;4.68;;;4.18;;
65463;SDS011;52063;45.110;9.870;2023-03-01T01:00:57;4.67;;;4.13;;
65463;SDS011;52063;45.110;9.870;2023-03-01T01:03:22;6.22;;;4.05;;
65463;SDS011;52063;45.110;9.870;2023-03-01T01:05:50;4.40;;;4.00;;
65463;SDS011;52063;45.110;9.870;2023-03-01T01:08:17;4.30;;;3.90;;
65463;SDS011;52063;45.110;9.870;2023-03-01T01:10:46;4.35;;;3.95;;
65463;SDS011;52063;45.110;9.870;2023-03-01T01:13:12;6.35;;;4.20;;
65463;SDS011;52063;45.110;9.870;2023-03-01T01:15:38;4.60;;;4.13;;
65463;SDS011;52063;45.110;9.870;2023-03-01T01:18:04;5.93;;;3.83;;
65463;SDS011;52063;45.110;9.870;2023-03-01T01:20:29;3.90;;;3.33;;
65463;SDS011;52063;45.110;9.870;2023-03-01T01:22:55;7.30;;;4.50;;
65463;SDS011;52063;45.110;9.870;2023-03-01T01:25:20;4.50;;;3.87;;
65463;SDS011;52063;45.110;9.870;2023-03-01T01:27:46;5.43;;;4.53;;
65463;SDS011;52063;45.110;9.870;2023-03-01T01:30:11;5.77;;;4.17;;
65463;SDS011;52063;45.110;9.870;2023-03-01T01:32:38;4.55;;;4.15;;
65463;SDS011;52063;45.110;9.870;2023-03-01T01:35:03;4.35;;;3.95;;
65463;SDS011;52063;45.110;9.870;2023-03-01T01:37:29;5.03;;;4.43;;
65463;SDS011;52063;45.110;9.870;2023-03-01T01:39:58;4.53;;;3.95;;
65463;SDS011;52063;45.110;9.870;2023-03-01T01:42:24;4.68;;;4.15;;
65463;SDS011;52063;45.110;9.870;2023-03-01T01:45:15;5.67;;;3.97;;
65463;SDS011;52063;45.110;9.870;2023-03-01T01:48:05;5.35;;;4.00;;
65463;SDS011;52063;45.110;9.870;2023-03-01T01:50:32;3.70;;;3.40;;
65463;SDS011;52063;45.110;9.870;2023-03-01T01:53:04;4.75;;;3.97;;
65463;SDS011;52063;45.110;9.870;2023-03-01T01:55:32;4.40;;;4.00;;
65463;SDS011;52063;45.110;9.870;2023-03-01T01:57:58;7.47;;;4.50;;
65463;SDS011;52063;45.110;9.870;2023-03-01T02:00:28;4.53;;;4.13;;
65463;SDS011;52063;45.110;9.870;2023-03-01T02:02:55;4.80;;;4.00;;
65463;SDS011;52063;45.110;9.870;2023-03-01T02:07:54;4.75;;;4.00;;
65463;SDS011;52063;45.110;9.870;2023-03-01T02:10:21;4.75;;;4.30;;
65463;SDS011;52063;45.110;9.870;2023-03-01T02:12:48;4.40;;;4.00;;
65463;SDS011;52063;45.110;9.870;2023-03-01T02:15:13;4.33;;;3.80;;
65463;SDS011;52063;45.110;9.870;2023-03-01T02:17:39;5.10;;;4.00;;
65463;SDS011;52063;45.110;9.870;2023-03-01T02:20:20;6.07;;;4.63;;
65463;SDS011;52063;45.110;9.870;2023-03-01T02:23:10;6.27;;;4.07;;
65463;SDS011;52063;45.110;9.870;2023-03-01T02:25:39;4.22;;;3.75;;
65463;SDS011;52063;45.110;9.870;2023-03-01T02:30:41;4.97;;;4.20;;
65463;SDS011;52063;45.110;9.870;2023-03-01T02:33:28;4.90;;;4.40;;
65463;SDS011;52063;45.110;9.870;2023-03-01T02:35:58;4.35;;;3.92;;
65463;SDS011;52063;45.110;9.870;2023-03-01T02:38:25;4.88;;;4.10;;
65463;SDS011;52063;45.110;9.870;2023-03-01T02:40:51;4.57;;;4.17;;
65463;SDS011;52063;45.110;9.870;2023-03-01T02:43:17;4.40;;;4.00;;
65463;SDS011;52063;45.110;9.870;2023-03-01T02:45:48;4.63;;;4.20;;
65463;SDS011;52063;45.110;9.870;2023-03-01T02:48:15;5.43;;;3.80;;
65463;SDS011;52063;45.110;9.870;2023-03-01T02:53:41;5.30;;;3.80;;
65463;SDS011;52063;45.110;9.870;2023-03-01T02:56:13;5.73;;;4.17;;
65463;SDS011;52063;45.110;9.870;2023-03-01T02:58:40;5.70;;;4.20;;
65463;SDS011;52063;45.110;9.870;2023-03-01T03:01:12;5.60;;;4.03;;
65463;SDS011;52063;45.110;9.870;2023-03-01T03:03:41;4.57;;;3.90;;
65463;SDS011;52063;45.110;9.870;2023-03-01T03:06:07;4.05;;;3.65;;
65463;SDS011;52063;45.110;9.870;2023-03-01T03:08:33;4.30;;;3.90;;
65463;SDS011;52063;45.110;9.870;2023-03-01T03:10:58;4.82;;;3.65;;
65463;SDS011;52063;45.110;9.870;2023-03-01T03:13:24;4.05;;;3.75;;
65463;SDS011;52063;45.110;9.870;2023-03-01T03:15:55;5.70;;;3.67;;
65463;SDS011;52063;45.110;9.870;2023-03-01T03:18:21;3.95;;;3.55;;
65463;SDS011;52063;45.110;9.870;2023-03-01T03:20:47;4.20;;;3.80;;
65463;SDS011;52063;45.110;9.870;2023-03-01T03:23:12;5.97;;;4.23;;
65463;SDS011;52063;45.110;9.870;2023-03-01T03:25:38;5.47;;;4.20;;
65463;SDS011;52063;45.110;9.870;2023-03-01T03:28:04;4.33;;;3.70;;
65463;SDS011;52063;45.110;9.870;2023-03-01T03:30:34;4.90;;;3.95;;
65463;SDS011;52063;45.110;9.870;2023-03-01T03:33:01;4.30;;;3.70;;
65463;SDS011;52063;45.110;9.870;2023-03-01T03:35:28;4.73;;;3.90;;
65463;SDS011;52063;45.110;9.870;2023-03-01T03:37:55;4.03;;;3.63;;
65463;SDS011;52063;45.110;9.870;2023-03-01T03:42:56;5.75;;;3.33;;
65463;SDS011;52063;45.110;9.870;2023-03-01T03:45:21;5.20;;;3.90;;
65463;SDS011;52063;45.110;9.870;2023-03-01T03:47:47;3.73;;;3.43;;
65463;SDS011;52063;45.110;9.870;2023-03-01T03:50:13;4.70;;;3.95;;
65463;SDS011;52063;45.110;9.870;2023-03-01T03:52:40;4.23;;;3.63;;
65463;SDS011;52063;45.110;9.870;2023-03-01T03:55:06;5.15;;;4.03;;
65463;SDS011;52063;45.110;9.870;2023-03-01T03:57:36;3.55;;;3.22;;
65463;SDS011;52063;45.110;9.870;2023-03-01T04:00:08;4.82;;;3.28;;
65463;SDS011;52063;45.110;9.870;2023-03-01T04:02:41;4.73;;;3.73;;
65463;SDS011;52063;45.110;9.870;2023-03-01T04:05:07;4.85;;;4.07;;
65463;SDS011;52063;45.110;9.870;2023-03-01T04:07:34;5.00;;;4.00;;
65463;SDS011;52063;45.110;9.870;2023-03-01T04:10:00;4.28;;;3.50;;
65463;SDS011;52063;45.110;9.870;2023-03-01T04:12:27;4.00;;;3.60;;
65463;SDS011;52063;45.110;9.870;2023-03-01T04:14:52;4.70;;;3.47;;
65463;SDS011;52063;45.110;9.870;2023-03-01T04:17:18;4.20;;;3.33;;
65463;SDS011;52063;45.110;9.870;2023-03-01T04:19:44;4.15;;;3.50;;
65463;SDS011;52063;45.110;9.870;2023-03-01T04:22:14;3.88;;;3.58;;
65463;SDS011;52063;45.110;9.870;2023-03-01T04:24:43;3.80;;;3.50;;
65463;SDS011;52063;45.110;9.870;2023-03-01T04:27:09;4.43;;;3.40;;
65463;SDS011;52063;45.110;9.870;2023-03-01T04:29:35;5.50;;;3.78;;
65463;SDS011;52063;45.110;9.870;2023-03-01T04:32:01;4.10;;;3.63;;
65463;SDS011;52063;45.110;9.870;2023-03-01T04:34:26;4.57;;;3.80;;
65463;SDS011;52063;45.110;9.870;2023-03-01T04:36:52;3.77;;;3.17;;
65463;SDS011;52063;45.110;9.870;2023-03-01T04:39:17;4.65;;;4.03;;
65463;SDS011;52063;45.110;9.870;2023-03-01T04:41:43;5.23;;;3.63;;
65463;SDS011;52063;45.110;9.870;2023-03-01T04:44:09;3.93;;;3.53;;
65463;SDS011;52063;45.110;9.870;2023-03-01T04:46:35;10.70;;;3.78;;
65463;SDS011;52063;45.110;9.870;2023-03-01T04:49:01;5.10;;;3.63;;
65463;SDS011;52063;45.110;9.870;2023-03-01T04:51:27;3.38;;;3.10;;
65463;SDS011;52063;45.110;9.870;2023-03-01T04:53:52;5.00;;;3.60;;
65463;SDS011;52063;45.110;9.870;2023-03-01T04:56:18;4.57;;;3.67;;
65463;SDS011;52063;45.110;9.870;2023-03-01T04:58:44;7.00;;;3.90;;
65463;SDS011;52063;45.110;9.870;2023-03-01T05:01:13;4.45;;;3.55;;
65463;SDS011;52063;45.110;9.870;2023-03-01T05:03:44;4.20;;;3.80;;
65463;SDS011;52063;45.110;9.870;2023-03-01T05:06:11;3.50;;;3.20;;
65463;SDS011;52063;45.110;9.870;2023-03-01T05:08:37;5.33;;;3.90;;
65463;SDS011;52063;45.110;9.870;2023-03-01T05:11:03;4.95;;;3.65;;
65463;SDS011;52063;45.110;9.870;2023-03-01T05:13:30;4.13;;;3.72;;
65463;SDS011;52063;45.110;9.870;2023-03-01T05:15:58;4.13;;;3.57;;
65463;SDS011;52063;45.110;9.870;2023-03-01T05:18:25;5.20;;;3.38;;
65463;SDS011;52063;45.110;9.870;2023-03-01T05:20:55;4.15;;;3.63;;
65463;SDS011;52063;45.110;9.870;2023-03-01T05:23:23;4.00;;;3.63;;
65463;SDS011;52063;45.110;9.870;2023-03-01T05:25:49;3.57;;;3.27;;
65463;SDS011;52063;45.110;9.870;2023-03-01T05:28:17;6.72;;;3.65;;
65463;SDS011;52063;45.110;9.870;2023-03-01T05:30:45;4.13;;;3.63;;
65463;SDS011;52063;45.110;9.870;2023-03-01T05:33:11;5.65;;;3.30;;
65463;SDS011;52063;45.110;9.870;2023-03-01T05:35:43;5.00;;;3.15;;
65463;SDS011;52063;45.110;9.870;2023-03-01T05:38:09;5.00;;;3.50;;
65463;SDS011;52063;45.110;9.870;2023-03-01T05:40:39;4.63;;;3.50;;
65463;SDS011;52063;45.110;9.870;2023-03-01T05:43:06;4.28;;;3.88;;
65463;SDS011;52063;45.110;9.870;2023-03-01T05:45:32;3.95;;;3.53;;
65463;SDS011;52063;45.110;9.870;2023-03-01T05:47:57;4.17;;;3.40;;
65463;SDS011;52063;45.110;9.870;2023-03-01T05:50:27;4.15;;;3.75;;
65463;SDS011;52063;45.110;9.870;2023-03-01T05:55:30;4.18;;;3.78;;
65463;SDS011;52063;45.110;9.870;2023-03-01T05:58:00;4.97;;;3.70;;
65463;SDS011;52063;45.110;9.870;2023-03-01T06:00:27;3.80;;;3.50;;
65463;SDS011;52063;45.110;9.870;2023-03-01T06:02:53;4.10;;;3.70;;
65463;SDS011;52063;45.110;9.870;2023-03-01T06:05:20;4.73;;;3.87;;
65463;SDS011;52063;45.110;9.870;2023-03-01T06:07:46;5.40;;;3.75;;
65463;SDS011;52063;45.110;9.870;2023-03-01T06:10:12;4.05;;;3.70;;
65463;SDS011;52063;45.110;9.870;2023-03-01T06:12:38;4.63;;;4.17;;
65463;SDS011;52063;45.110;9.870;2023-03-01T06:15:04;4.60;;;4.00;;
65463;SDS011;52063;45.110;9.870;2023-03-01T06:17:33;4.22;;;3.75;;
65463;SDS011;52063;45.110;9.870;2023-03-01T06:20:06;4.00;;;3.58;;
65463;SDS011;52063;45.110;9.870;2023-03-01T06:22:36;4.63;;;4.00;;
65463;SDS011;52063;45.110;9.870;2023-03-01T06:25:02;9.33;;;4.33;;
65463;SDS011;52063;45.110;9.870;2023-03-01T06:27:28;3.90;;;3.60;;
65463;SDS011;52063;45.110;9.870;2023-03-01T06:29:54;3.73;;;3.33;;
65463;SDS011;52063;45.110;9.870;2023-03-01T06:32:20;4.55;;;3.72;;
65463;SDS011;52063;45.110;9.870;2023-03-01T06:34:45;4.77;;;4.07;;
65463;SDS011;52063;45.110;9.870;2023-03-01T06:37:11;5.40;;;4.03;;
65463;SDS011;52063;45.110;9.870;2023-03-01T06:39:36;4.47;;;4.00;;
65463;SDS011;52063;45.110;9.870;2023-03-01T06:42:02;7.27;;;4.10;;
65463;SDS011;52063;45.110;9.870;2023-03-01T06:44:28;4.75;;;4.22;;
65463;SDS011;52063;45.110;9.870;2023-03-01T06:46:53;4.00;;;3.60;;
65463;SDS011;52063;45.110;9.870;2023-03-01T06:49:19;5.13;;;4.13;;
65463;SDS011;52063;45.110;9.870;2023-03-01T06:51:45;4.38;;;3.97;;
65463;SDS011;52063;45.110;9.870;2023-03-01T06:54:11;4.78;;;3.72;;
65463;SDS011;52063;45.110;9.870;2023-03-01T06:56:36;4.13;;;3.70;;
65463;SDS011;52063;45.110;9.870;2023-03-01T06:59:02;4.57;;;3.92;;
65463;SDS011;52063;45.110;9.870;2023-03-01T07:01:28;4.40;;;4.00;;
65463;SDS011;52063;45.110;9.870;2023-03-01T07:03:54;4.57;;;4.18;;
65463;SDS011;52063;45.110;9.870;2023-03-01T07:06:19;4.67;;;3.57;;
65463;SDS011;52063;45.110;9.870;2023-03-01T07:08:45;5.65;;;3.95;;
65463;SDS011;52063;45.110;9.870;2023-03-01T07:11:11;4.53;;;4.00;;
65463;SDS011;52063;45.110;9.870;2023-03-01T07:13:36;4.40;;;3.97;;
65463;SDS011;52063;45.110;9.870;2023-03-01T07:16:02;4.33;;;3.93;;
65463;SDS011;52063;45.110;9.870;2023-03-01T07:18:27;5.20;;;4.05;;
65463;SDS011;52063;45.110;9.870;2023-03-01T07:20:53;5.53;;;4.13;;
65463;SDS011;52063;45.110;9.870;2023-03-01T07:23:18;4.10;;;3.70;;
65463;SDS011;52063;45.110;9.870;2023-03-01T07:25:44;4.57;;;4.13;;
65463;SDS011;52063;45.110;9.870;2023-03-01T07:28:09;4.40;;;3.97;;
65463;SDS011;52063;45.110;9.870;2023-03-01T07:30:35;4.03;;;3.63;;
65463;SDS011;52063;45.110;9.870;2023-03-01T07:33:00;4.23;;;3.83;;
65463;SDS011;52063;45.110;9.870;2023-03-01T07:35:26;4.68;;;4.18;;
65463;SDS011;52063;45.110;9.870;2023-03-01T07:37:52;7.00;;;4.63;;
65463;SDS011;52063;45.110;9.870;2023-03-01T07:40:18;5.20;;;4.15;;
65463;SDS011;52063;45.110;9.870;2023-03-01T07:42:44;4.20;;;3.88;;
65463;SDS011;52063;45.110;9.870;2023-03-01T07:45:09;6.90;;;3.83;;
65463;SDS011;52063;45.110;9.870;2023-03-01T07:47:35;4.43;;;4.03;;
65463;SDS011;52063;45.110;9.870;2023-03-01T07:50:01;5.97;;;3.70;;
65463;SDS011;52063;45.110;9.870;2023-03-01T07:52:28;4.25;;;3.65;;
65463;SDS011;52063;45.110;9.870;2023-03-01T07:54:53;6.40;;;4.18;;
65463;SDS011;52063;45.110;9.870;2023-03-01T07:57:19;4.30;;;3.90;;
65463;SDS011;52063;45.110;9.870;2023-03-01T07:59:44;5.00;;;3.92;;
65463;SDS011;52063;45.110;9.870;2023-03-01T08:02:10;4.07;;;3.70;;
65463;SDS011;52063;45.110;9.870;2023-03-01T08:04:36;4.35;;;3.95;;
65463;SDS011;52063;45.110;9.870;2023-03-01T08:07:04;5.37;;;4.40;;
65463;SDS011;52063;45.110;9.870;2023-03-01T08:09:30;4.53;;;3.78;;
65463;SDS011;52063;45.110;9.870;2023-03-01T08:11:56;4.43;;;4.03;;
65463;SDS011;52063;45.110;9.870;2023-03-01T08:14:24;4.07;;;3.78;;
65463;SDS011;52063;45.110;9.870;2023-03-01T08:16:50;4.57;;;4.00;;
65463;SDS011;52063;45.110;9.870;2023-03-01T08:19:15;4.60;;;4.10;;
65463;SDS011;52063;45.110;9.870;2023-03-01T08:21:41;4.47;;;4.00;;
65463;SDS011;52063;45.110;9.870;2023-03-01T08:24:06;5.00;;;4.20;;
65463;SDS011;52063;45.110;9.870;2023-03-01T08:26:33;5.13;;;4.37;;
65463;SDS011;52063;45.110;9.870;2023-03-01T08:28:59;5.00;;;4.43;;
65463;SDS011;52063;45.110;9.870;2023-03-01T08:31:26;4.75;;;4.18;;
65463;SDS011;52063;45.110;9.870;2023-03-01T08:33:55;5.13;;;4.10;;
65463;SDS011;52063;45.110;9.870;2023-03-01T08:36:22;5.22;;;4.30;;
65463;SDS011;52063;45.110;9.870;2023-03-01T08:38:49;6.90;;;4.37;;
65463;SDS011;52063;45.110;9.870;2023-03-01T08:41:14;4.95;;;4.30;;
65463;SDS011;52063;45.110;9.870;2023-03-01T08:43:40;5.53;;;4.30;;
65463;SDS011;52063;45.110;9.870;2023-03-01T08:46:05;4.88;;;4.38;;
65463;SDS011;52063;45.110;9.870;2023-03-01T08:48:31;6.00;;;4.57;;
65463;SDS011;52063;45.110;9.870;2023-03-01T08:50:56;10.00;;;4.67;;
65463;SDS011;52063;45.110;9.870;2023-03-01T08:53:22;6.30;;;4.57;;
65463;SDS011;52063;45.110;9.870;2023-03-01T08:55:47;7.00;;;4.45;;
65463;SDS011;52063;45.110;9.870;2023-03-01T08:58:13;5.97;;;4.60;;
65463;SDS011;52063;45.110;9.870;2023-03-01T09:00:38;10.37;;;4.60;;
65463;SDS011;52063;45.110;9.870;2023-03-01T09:03:05;5.38;;;4.55;;
65463;SDS011;52063;45.110;9.870;2023-03-01T09:05:31;5.80;;;5.20;;
65463;SDS011;52063;45.110;9.870;2023-03-01T09:07:57;7.28;;;4.70;;
65463;SDS011;52063;45.110;9.870;2023-03-01T09:10:23;7.10;;;5.60;;
65463;SDS011;52063;45.110;9.870;2023-03-01T09:12:48;5.70;;;5.20;;
65463;SDS011;52063;45.110;9.870;2023-03-01T09:15:13;5.87;;;5.27;;
65463;SDS011;52063;45.110;9.870;2023-03-01T09:17:39;6.77;;;5.40;;
65463;SDS011;52063;45.110;9.870;2023-03-01T09:20:04;6.50;;;5.77;;
65463;SDS011;52063;45.110;9.870;2023-03-01T09:22:32;7.35;;;5.93;;
65463;SDS011;52063;45.110;9.870;2023-03-01T09:24:59;7.90;;;6.03;;
65463;SDS011;52063;45.110;9.870;2023-03-01T09:27:24;8.45;;;6.38;;
65463;SDS011;52063;45.110;9.870;2023-03-01T09:29:50;7.80;;;6.07;;
65463;SDS011;52063;45.110;9.870;2023-03-01T09:32:15;8.43;;;6.33;;
65463;SDS011;52063;45.110;9.870;2023-03-01T09:34:41;11.20;;;6.97;;
65463;SDS011;52063;45.110;9.870;2023-03-01T09:37:26;11.00;;;7.40;;
65463;SDS011;52063;45.110;9.870;2023-03-01T09:39:51;10.80;;;7.10;;
65463;SDS011;52063;45.110;9.870;2023-03-01T09:42:18;10.55;;;7.45;;
65463;SDS011;52063;45.110;9.870;2023-03-01T09:44:51;8.63;;;6.97;;
65463;SDS011;52063;45.110;9.870;2023-03-01T09:47:21;10.48;;;6.82;;
65463;SDS011;52063;45.110;9.870;2023-03-01T09:52:38;8.43;;;6.70;;
65463;SDS011;52063;45.110;9.870;2023-03-01T09:55:13;8.65;;;7.18;;
65463;SDS011;52063;45.110;9.870;2023-03-01T09:57:58;8.03;;;6.50;;
65463;SDS011;52063;45.110;9.870;2023-03-01T10:00:30;8.30;;;6.70;;
65463;SDS011;52063;45.110;9.870;2023-03-01T10:03:04;8.70;;;6.45;;
65463;SDS011;52063;45.110;9.870;2023-03-01T10:06:19;8.70;;;6.97;;
65463;SDS011;52063;45.110;9.870;2023-03-01T10:08:50;9.40;;;6.43;;
65463;SDS011;52063;45.110;9.870;2023-03-01T10:11:21;9.63;;;6.90;;
65463;SDS011;52063;45.110;9.870;2023-03-01T10:13:51;7.93;;;6.30;;
65463;SDS011;52063;45.110;9.870;2023-03-01T10:19:23;7.85;;;6.38;;
65463;SDS011;52063;45.110;9.870;2023-03-01T10:21:52;7.28;;;6.43;;
65463;SDS011;52063;45.110;9.870;2023-03-01T10:24:18;8.83;;;6.90;;
65463;SDS011;52063;45.110;9.870;2023-03-01T10:26:56;10.05;;;7.15;;
65463;SDS011;52063;45.110;9.870;2023-03-01T10:29:30;8.80;;;6.85;;
65463;SDS011;52063;45.110;9.870;2023-03-01T10:32:00;11.30;;;7.07;;
65463;SDS011;52063;45.110;9.870;2023-03-01T10:34:32;8.88;;;7.18;;
65463;SDS011;52063;45.110;9.870;2023-03-01T10:37:15;8.17;;;7.23;;
65463;SDS011;52063;45.110;9.870;2023-03-01T10:39:56;10.85;;;7.60;;
65463;SDS011;52063;45.110;9.870;2023-03-01T10:42:28;10.65;;;7.72;;
65463;SDS011;52063;45.110;9.870;2023-03-01T10:44:58;9.30;;;7.40;;
65463;SDS011;52063;45.110;9.870;2023-03-01T10:47:40;8.65;;;7.00;;
65463;SDS011;52063;45.110;9.870;2023-03-01T10:50:17;9.53;;;7.20;;
65463;SDS011;52063;45.110;9.870;2023-03-01T10:52:54;8.43;;;7.07;;
65463;SDS011;52063;45.110;9.870;2023-03-01T10:55:33;9.87;;;7.27;;
65463;SDS011;52063;45.110;9.870;2023-03-01T10:58:20;9.20;;;7.32;;
65463;SDS011;52063;45.110;9.870;2023-03-01T11:00:48;7.88;;;6.90;;
65463;SDS011;52063;45.110;9.870;2023-03-01T11:03:17;8.43;;;7.13;;
65463;SDS011;52063;45.110;9.870;2023-03-01T11:14:00;10.57;;;7.70;;
65463;SDS011;52063;45.110;9.870;2023-03-01T11:16:36;8.52;;;7.57;;
65463;SDS011;52063;45.110;9.870;2023-03-01T11:21:35;9.63;;;7.13;;
65463;SDS011;52063;45.110;9.870;2023-03-01T11:24:03;11.07;;;7.30;;
65463;SDS011;52063;45.110;9.870;2023-03-01T11:26:29;9.48;;;7.82;;
65463;SDS011;52063;45.110;9.870;2023-03-01T11:28:58;8.85;;;7.60;;
65463;SDS011;52063;45.110;9.870;2023-03-01T11:31:26;9.30;;;7.75;;
65463;SDS011;52063;45.110;9.870;2023-03-01T11:33:56;9.07;;;8.00;;
65463;SDS011;52063;45.110;9.870;2023-03-01T11:39:16;8.98;;;7.18;;
65463;SDS011;52063;45.110;9.870;2023-03-01T11:41:47;10.38;;;7.82;;
65463;SDS011;52063;45.110;9.870;2023-03-01T11:44:16;8.70;;;7.43;;
65463;SDS011;52063;45.110;9.870;2023-03-01T12:08:33;10.05;;;7.30;;
65463;SDS011;52063;45.110;9.870;2023-03-01T12:11:16;12.98;;;7.72;;
65463;SDS011;52063;45.110;9.870;2023-03-01T12:22:46;8.20;;;6.95;;
65463;SDS011;52063;45.110;9.870;2023-03-01T12:28:24;8.35;;;6.32;;
65463;SDS011;52063;45.110;9.870;2023-03-01T12:31:10;7.90;;;6.68;;
65463;SDS011;52063;45.110;9.870;2023-03-01T12:36:55;10.73;;;6.50;;
65463;SDS011;52063;45.110;9.870;2023-03-01T12:51:01;7.63;;;6.20;;
65463;SDS011;52063;45.110;9.870;2023-03-01T12:53:38;7.05;;;5.88;;
65463;SDS011;52063;45.110;9.870;2023-03-01T12:56:06;7.80;;;6.28;;
65463;SDS011;52063;45.110;9.870;2023-03-01T13:03:55;7.43;;;5.93;;
65463;SDS011;52063;45.110;9.870;2023-03-01T13:09:24;6.38;;;5.60;;
65463;SDS011;52063;45.110;9.870;2023-03-01T13:11:55;6.93;;;6.18;;
65463;SDS011;52063;45.110;9.870;2023-03-01T13:16:46;5.97;;;5.37;;
65463;SDS011;52063;45.110;9.870;2023-03-01T13:19:21;6.28;;;5.50;;
65463;SDS011;52063;45.110;9.870;2023-03-01T13:21:51;6.60;;;5.95;;
65463;SDS011;52063;45.110;9.870;2023-03-01T13:24:26;6.65;;;5.57;;
65463;SDS011;52063;45.110;9.870;2023-03-01T13:27:25;9.82;;;5.45;;
65463;SDS011;52063;45.110;9.870;2023-03-01T13:29:50;8.00;;;5.30;;
65463;SDS011;52063;45.110;9.870;2023-03-01T13:34:52;6.18;;;4.90;;
65463;SDS011;52063;45.110;9.870;2023-03-01T13:37:26;7.32;;;5.57;;
65463;SDS011;52063;45.110;9.870;2023-03-01T13:39:57;7.47;;;5.22;;
65463;SDS011;52063;45.110;9.870;2023-03-01T13:45:04;7.03;;;5.50;;
65463;SDS011;52063;45.110;9.870;2023-03-01T13:47:54;5.13;;;4.63;;
65463;SDS011;52063;45.110;9.870;2023-03-01T13:50:25;5.20;;;4.70;;
65463;SDS011;52063;45.110;9.870;2023-03-01T13:52:53;5.63;;;5.00;;
65463;SDS011;52063;45.110;9.870;2023-03-01T13:55:24;5.80;;;5.10;;
65463;SDS011;52063;45.110;9.870;2023-03-01T13:57:56;5.97;;;5.38;;
65463;SDS011;52063;45.110;9.870;2023-03-01T14:00:33;6.72;;;5.25;;
65463;SDS011;52063;45.110;9.870;2023-03-01T14:03:01;5.72;;;5.00;;
65463;SDS011;52063;45.110;9.870;2023-03-01T14:05:29;5.70;;;5.10;;
65463;SDS011;52063;45.110;9.870;2023-03-01T14:07:55;5.80;;;5.10;;
65463;SDS011;52063;45.110;9.870;2023-03-01T14:10:20;6.82;;;5.25;;
65463;SDS011;52063;45.110;9.870;2023-03-01T14:15:37;5.43;;;4.85;;
65463;SDS011;52063;45.110;9.870;2023-03-01T14:20:41;5.18;;;4.50;;
65463;SDS011;52063;45.110;9.870;2023-03-01T14:23:15;6.27;;;4.33;;
65463;SDS011;52063;45.110;9.870;2023-03-01T14:25:50;5.07;;;4.57;;
65463;SDS011;52063;45.110;9.870;2023-03-01T14:28:21;5.18;;;4.68;;
65463;SDS011;52063;45.110;9.870;2023-03-01T14:30:51;4.75;;;4.35;;
65463;SDS011;52063;45.110;9.870;2023-03-01T14:35:58;5.90;;;4.57;;
65463;SDS011;52063;45.110;9.870;2023-03-01T14:40:56;5.88;;;4.57;;
65463;SDS011;52063;45.110;9.870;2023-03-01T14:43:24;5.70;;;4.43;;
65463;SDS011;52063;45.110;9.870;2023-03-01T14:45:53;5.93;;;4.95;;
65463;SDS011;52063;45.110;9.870;2023-03-01T14:48:18;4.93;;;4.43;;
65463;SDS011;52063;45.110;9.870;2023-03-01T14:50:44;4.22;;;3.83;;
65463;SDS011;52063;45.110;9.870;2023-03-01T14:53:17;5.10;;;4.57;;
65463;SDS011;52063;45.110;9.870;2023-03-01T14:55:45;5.65;;;4.68;;
65463;SDS011;52063;45.110;9.870;2023-03-01T14:58:14;5.10;;;4.15;;
65463;SDS011;52063;45.110;9.870;2023-03-01T15:00:47;4.95;;;4.40;;
65463;SDS011;52063;45.110;9.870;2023-03-01T15:03:26;5.20;;;4.55;;
65463;SDS011;52063;45.110;9.870;2023-03-01T15:05:55;5.53;;;4.40;;
65463;SDS011;52063;45.110;9.870;2023-03-01T15:08:23;5.00;;;4.50;;
65463;SDS011;52063;45.110;9.870;2023-03-01T15:11:00;4.78;;;4.15;;
65463;SDS011;52063;45.110;9.870;2023-03-01T15:13:26;5.10;;;4.50;;
65463;SDS011;52063;45.110;9.870;2023-03-01T15:16:09;5.60;;;4.50;;
65463;SDS011;52063;45.110;9.870;2023-03-01T15:18:37;6.18;;;4.55;;
65463;SDS011;52063;45.110;9.870;2023-03-01T15:21:08;5.07;;;4.40;;
65463;SDS011;52063;45.110;9.870;2023-03-01T15:23:38;4.43;;;4.03;;
65463;SDS011;52063;45.110;9.870;2023-03-01T15:26:05;5.13;;;4.45;;
65463;SDS011;52063;45.110;9.870;2023-03-01T15:28:31;5.67;;;4.80;;
65463;SDS011;52063;45.110;9.870;2023-03-01T15:31:18;5.90;;;4.00;;
65463;SDS011;52063;45.110;9.870;2023-03-01T15:33:48;6.00;;;4.13;;
65463;SDS011;52063;45.110;9.870;2023-03-01T15:39:02;5.40;;;4.15;;
65463;SDS011;52063;45.110;9.870;2023-03-01T15:41:29;4.45;;;4.05;;
65463;SDS011;52063;45.110;9.870;2023-03-01T15:43:57;5.10;;;4.20;;
65463;SDS011;52063;45.110;9.870;2023-03-01T15:48:55;4.53;;;3.78;;
65463;SDS011;52063;45.110;9.870;2023-03-01T15:51:27;4.78;;;3.90;;
65463;SDS011;52063;45.110;9.870;2023-03-01T15:53:54;4.38;;;3.50;;
65463;SDS011;52063;45.110;9.870;2023-03-01T15:56:20;5.07;;;4.20;;
65463;SDS011;52063;45.110;9.870;2023-03-01T15:58:46;4.57;;;3.90;;
65463;SDS011;52063;45.110;9.870;2023-03-01T16:01:15;6.10;;;4.00;;
65463;SDS011;52063;45.110;9.870;2023-03-01T16:03:44;4.38;;;3.97;;
65463;SDS011;52063;45.110;9.870;2023-03-01T16:06:10;4.50;;;4.00;;
65463;SDS011;52063;45.110;9.870;2023-03-01T16:08:36;5.27;;;4.03;;
65463;SDS011;52063;45.110;9.870;2023-03-01T16:11:03;5.20;;;4.05;;
65463;SDS011;52063;45.110;9.870;2023-03-01T16:13:31;4.18;;;3.78;;
65463;SDS011;52063;45.110;9.870;2023-03-01T16:15:57;3.90;;;3.60;;
65463;SDS011;52063;45.110;9.870;2023-03-01T16:18:23;4.97;;;4.20;;
65463;SDS011;52063;45.110;9.870;2023-03-01T16:20:49;4.87;;;3.80;;
65463;SDS011;52063;45.110;9.870;2023-03-01T16:23:14;3.93;;;3.63;;
65463;SDS011;52063;45.110;9.870;2023-03-01T16:25:40;4.47;;;3.83;;
65463;SDS011;52063;45.110;9.870;2023-03-01T16:28:06;4.40;;;4.00;;
65463;SDS011;52063;45.110;9.870;2023-03-01T16:30:34;4.18;;;3.80;;
65463;SDS011;52063;45.110;9.870;2023-03-01T16:33:00;4.90;;;3.60;;
65463;SDS011;52063;45.110;9.870;2023-03-01T16:35:26;4.03;;;3.63;;
65463;SDS011;52063;45.110;9.870;2023-03-01T16:37:51;4.77;;;3.80;;
65463;SDS011;52063;45.110;9.870;2023-03-01T16:40:23;4.20;;;3.80;;
65463;SDS011;52063;45.110;9.870;2023-03-01T16:42:51;4.07;;;3.67;;
65463;SDS011;52063;45.110;9.870;2023-03-01T16:45:16;4.30;;;3.90;;
65463;SDS011;52063;45.110;9.870;2023-03-01T16:47:42;4.00;;;3.60;;
65463;SDS011;52063;45.110;9.870;2023-03-01T16:50:08;4.57;;;3.57;;